Time;durP1;ratioP1;P1;durP2;ratioP2;P2;SDS_P1;SDS_P2;PMS_P1;PMS_P2;Temp;Humidity;BMP_temperature;BMP_pressure;BME280_temperature;BME280_humidity;BME280_pressure;Samples;Min_cycle;Max_cycle;Signal;HPM_P1;HPM_P2
2023/01/16 00:02:00;;;;;;;9.00;2.58;;;;;;;;;;5077083;28;20186;-62
2023/01/16 00:04:26;;;;;;;4.88;2.80;;;;;;;;;;5075382;28;20041;-62
2023/01/16 00:06:52;;;;;;;4.55;2.10;;;;;;;;;;5078906;28;20481;-62
2023/01/16 00:09:18;;;;;;;4.72;2.78;;;;;;;;;;5075954;28;20490;-62
2023/01/16 00:11:44;;;;;;;6.53;2.78;;;;;;;;;;5076735;28;20036;-62
2023/01/16 00:14:10;;;;;;;9.00;2.33;;;;;;;;;;5071095;28;20037;-62
2023/01/16 00:16:37;;;;;;;6.63;3.03;;;;;;;;;;5090730;28;20044;-62
2023/01/16 00:19:03;;;;;;;7.28;2.20;;;;;;;;;;5088365;28;20040;-62
2023/01/16 00:21:29;;;;;;;10.07;5.80;;;;;;;;;;5078333;28;20489;-62
2023/01/16 00:23:56;;;;;;;6.00;3.08;;;;;;;;;;5084845;28;20105;-62
2023/01/16 00:26:23;;;;;;;8.98;3.90;;;;;;;;;;5080790;28;20486;-62
2023/01/16 00:28:49;;;;;;;4.28;2.35;;;;;;;;;;5088849;28;20040;-62
2023/01/16 00:31:15;;;;;;;8.10;2.63;;;;;;;;;;5088252;28;20052;-62
2023/01/16 00:33:42;;;;;;;6.65;2.58;;;;;;;;;;5091241;28;20040;-62
2023/01/16 00:36:09;;;;;;;5.10;2.30;;;;;;;;;;5083385;28;20115;-62
2023/01/16 00:38:35;;;;;;;7.55;2.35;;;;;;;;;;5085249;28;20040;-62
2023/01/16 00:41:01;;;;;;;6.43;2.95;;;;;;;;;;5084983;28;20028;-62
2023/01/16 00:43:27;;;;;;;9.73;2.88;;;;;;;;;;5081770;28;20494;-62
2023/01/16 00:45:53;;;;;;;6.15;1.95;;;;;;;;;;5085089;28;20498;-62
2023/01/16 00:48:19;;;;;;;5.43;1.92;;;;;;;;;;5077543;28;20526;-62
2023/01/16 00:50:45;;;;;;;6.97;2.25;;;;;;;;;;5080204;28;20174;-62
2023/01/16 00:53:11;;;;;;;6.72;2.13;;;;;;;;;;5084425;28;20170;-62
2023/01/16 00:55:37;;;;;;;4.53;2.10;;;;;;;;;;5073854;28;20040;-63
2023/01/16 00:58:03;;;;;;;5.45;2.40;;;;;;;;;;5086074;28;20530;-62
2023/01/16 01:00:30;;;;;;;5.15;2.10;;;;;;;;;;5090344;28;20497;-62
2023/01/16 01:02:56;;;;;;;6.65;2.10;;;;;;;;;;5083806;28;20157;-62
2023/01/16 01:05:22;;;;;;;9.25;2.92;;;;;;;;;;5082017;28;20558;-62
2023/01/16 01:07:48;;;;;;;4.18;1.90;;;;;;;;;;5084459;28;20379;-63
2023/01/16 01:10:14;;;;;;;6.07;2.22;;;;;;;;;;5082224;28;20046;-62
2023/01/16 01:12:40;;;;;;;6.82;2.00;;;;;;;;;;5084395;28;20494;-62
2023/01/16 01:15:07;;;;;;;6.30;2.13;;;;;;;;;;5086039;28;20029;-62
2023/01/16 01:17:33;;;;;;;5.70;2.13;;;;;;;;;;5078318;28;20040;-62
2023/01/16 01:19:59;;;;;;;7.18;1.83;;;;;;;;;;5082038;28;20036;-62
2023/01/16 01:22:26;;;;;;;8.93;3.28;;;;;;;;;;5085006;28;20044;-62
2023/01/16 01:24:52;;;;;;;9.20;1.88;;;;;;;;;;5082385;28;20036;-62
2023/01/16 01:27:18;;;;;;;6.20;1.63;;;;;;;;;;5071469;28;20041;-63
2023/01/16 01:29:45;;;;;;;9.70;2.08;;;;;;;;;;5083600;28;20456;-62
2023/01/16 01:32:11;;;;;;;4.60;2.05;;;;;;;;;;5080960;28;20562;-62
2023/01/16 01:34:37;;;;;;;6.15;2.00;;;;;;;;;;5091170;28;20446;-62
2023/01/16 01:37:04;;;;;;;6.78;1.95;;;;;;;;;;5072313;28;20079;-62
2023/01/16 01:39:30;;;;;;;8.35;1.63;;;;;;;;;;5071769;28;20041;-62
2023/01/16 01:44:44;;;;;;;5.78;2.10;;;;;;;;;;5086506;28;20070;-62
2023/01/16 01:47:10;;;;;;;7.30;1.70;;;;;;;;;;5084839;28;20044;-62
2023/01/16 01:49:37;;;;;;;6.05;1.80;;;;;;;;;;5072119;28;20052;-62
2023/01/16 01:52:04;;;;;;;6.55;2.05;;;;;;;;;;5077519;28;20039;-62
2023/01/16 01:54:33;;;;;;;3.58;1.55;;;;;;;;;;5078100;28;20041;-62
2023/01/16 01:57:01;;;;;;;4.10;1.67;;;;;;;;;;5082110;28;20500;-62
2023/01/16 01:59:32;;;;;;;6.90;1.90;;;;;;;;;;5072119;28;20044;-62
2023/01/16 02:01:59;;;;;;;5.28;1.60;;;;;;;;;;5088341;28;20032;-62
2023/01/16 02:04:28;;;;;;;6.78;1.92;;;;;;;;;;5077335;28;20045;-62
2023/01/16 02:06:55;;;;;;;6.50;1.80;;;;;;;;;;5085799;28;20511;-62
2023/01/16 02:09:22;;;;;;;5.60;1.70;;;;;;;;;;5083815;28;20497;-62
2023/01/16 02:11:48;;;;;;;5.95;1.73;;;;;;;;;;5085576;28;20036;-62
2023/01/16 02:14:16;;;;;;;4.88;1.55;;;;;;;;;;5079766;28;20422;-62
2023/01/16 02:19:45;;;;;;;6.65;1.92;;;;;;;;;;5088492;28;20047;-62
2023/01/16 02:22:29;;;;;;;7.30;2.20;;;;;;;;;;5080346;28;20029;-62
2023/01/16 02:25:04;;;;;;;7.20;2.22;;;;;;;;;;5080239;28;20119;-62
2023/01/16 02:27:49;;;;;;;4.75;2.00;;;;;;;;;;5093913;22;20049;-64
2023/01/16 02:30:35;;;;;;;4.60;1.92;;;;;;;;;;5065904;28;20444;-65
2023/01/16 02:33:08;;;;;;;5.28;1.92;;;;;;;;;;5046852;28;20045;-65
2023/01/16 02:35:37;;;;;;;3.13;1.70;;;;;;;;;;5061937;28;20127;-65
2023/01/16 02:38:22;;;;;;;7.20;2.10;;;;;;;;;;5068029;28;20043;-64
2023/01/16 02:41:07;;;;;;;7.57;1.90;;;;;;;;;;5068067;28;20048;-64
2023/01/16 02:43:33;;;;;;;10.30;2.67;;;;;;;;;;5070485;28;20052;-64
2023/01/16 02:46:14;;;;;;;4.13;1.77;;;;;;;;;;5059839;28;20048;-65
2023/01/16 02:48:48;;;;;;;6.80;2.08;;;;;;;;;;5066399;28;20062;-65
2023/01/16 02:51:25;;;;;;;6.35;2.25;;;;;;;;;;5062758;28;20048;-65
2023/01/16 02:54:02;;;;;;;3.30;2.30;;;;;;;;;;5066820;28;20063;-64
2023/01/16 02:56:32;;;;;;;6.18;2.03;;;;;;;;;;5069203;28;20409;-64
2023/01/16 02:58:58;;;;;;;7.43;2.30;;;;;;;;;;5069251;28;20033;-64
2023/01/16 03:01:24;;;;;;;7.63;2.40;;;;;;;;;;5067355;28;20040;-64
2023/01/16 03:03:51;;;;;;;7.63;2.20;;;;;;;;;;5070939;28;20040;-65
2023/01/16 03:06:20;;;;;;;5.07;1.90;;;;;;;;;;5066572;28;20540;-64
2023/01/16 03:08:52;;;;;;;4.60;2.10;;;;;;;;;;5069585;28;20052;-64
2023/01/16 03:11:23;;;;;;;4.45;2.08;;;;;;;;;;5062741;28;20064;-64
2023/01/16 03:13:49;;;;;;;;;;;;;;;;;;5068501;28;20040;-65
2023/01/16 03:16:25;;;;;;;4.72;2.45;;;;;;;;;;5063861;28;19939;-65
2023/01/16 03:19:11;;;;;;;5.88;2.13;;;;;;;;;;5066771;28;20524;-64
2023/01/16 03:21:42;;;;;;;2.67;2.03;;;;;;;;;;5068430;28;20085;-65
2023/01/16 03:24:17;;;;;;;5.82;2.05;;;;;;;;;;5068140;28;20123;-65
2023/01/16 03:26:46;;;;;;;3.80;2.25;;;;;;;;;;5066987;28;20043;-65
2023/01/16 03:29:23;;;;;;;5.85;2.38;;;;;;;;;;5068471;28;20036;-65
2023/01/16 03:31:52;;;;;;;4.47;2.25;;;;;;;;;;5071814;28;20079;-64
2023/01/16 03:34:33;;;;;;;6.07;2.80;;;;;;;;;;5067014;28;20048;-64
2023/01/16 03:37:02;;;;;;;5.20;2.60;;;;;;;;;;5069726;28;20307;-64
2023/01/16 03:39:31;;;;;;;5.72;2.88;;;;;;;;;;5066981;28;20141;-65
2023/01/16 03:42:01;;;;;;;8.63;3.17;;;;;;;;;;5069630;28;20036;-64
2023/01/16 03:44:30;;;;;;;4.85;2.88;;;;;;;;;;5071318;28;20073;-64
2023/01/16 03:46:57;;;;;;;5.85;2.92;;;;;;;;;;5069638;28;20059;-64
2023/01/16 03:49:29;;;;;;;6.35;2.90;;;;;;;;;;5067048;28;20041;-64
2023/01/16 03:51:59;;;;;;;4.95;3.10;;;;;;;;;;5071302;28;20436;-64
2023/01/16 03:54:25;;;;;;;6.63;3.75;;;;;;;;;;5071905;28;20124;-65
2023/01/16 03:56:55;;;;;;;7.30;4.10;;;;;;;;;;5071471;28;20127;-65
2023/01/16 03:59:21;;;;;;;6.35;3.83;;;;;;;;;;5073647;28;20498;-64
2023/01/16 04:01:55;;;;;;;6.13;4.28;;;;;;;;;;5071958;28;20086;-65
2023/01/16 04:04:21;;;;;;;8.13;4.90;;;;;;;;;;5071881;28;20120;-64
2023/01/16 04:07:09;;;;;;;8.45;4.82;;;;;;;;;;5070933;28;20124;-65
2023/01/16 04:09:39;;;;;;;10.30;5.65;;;;;;;;;;5073240;28;20041;-65
2023/01/16 04:12:05;;;;;;;8.65;5.38;;;;;;;;;;5064994;28;20041;-64
2023/01/16 04:14:33;;;;;;;9.85;5.90;;;;;;;;;;5072757;28;20445;-64
2023/01/16 04:16:59;;;;;;;9.70;6.07;;;;;;;;;;5070251;28;20033;-65
2023/01/16 04:19:27;;;;;;;13.10;7.20;;;;;;;;;;5072624;28;20068;-65
2023/01/16 04:21:53;;;;;;;14.52;7.53;;;;;;;;;;5070288;28;20075;-65
2023/01/16 04:24:19;;;;;;;15.32;9.23;;;;;;;;;;5072122;28;20075;-65
2023/01/16 04:26:45;;;;;;;12.77;7.53;;;;;;;;;;5071959;28;20109;-64
2023/01/16 04:29:11;;;;;;;13.60;8.25;;;;;;;;;;5073160;28;20047;-65
2023/01/16 04:31:37;;;;;;;15.60;8.38;;;;;;;;;;5073273;28;20098;-64
2023/01/16 04:34:03;;;;;;;14.55;8.73;;;;;;;;;;5070758;28;20045;-65
2023/01/16 04:36:31;;;;;;;15.88;9.27;;;;;;;;;;5070374;28;20470;-65
2023/01/16 04:38:57;;;;;;;16.80;9.27;;;;;;;;;;5073590;28;20059;-65
2023/01/16 04:41:35;;;;;;;14.88;9.00;;;;;;;;;;5074247;28;20094;-65
2023/01/16 04:44:02;;;;;;;18.55;9.25;;;;;;;;;;5069862;28;20050;-65
2023/01/16 04:46:28;;;;;;;17.17;8.63;;;;;;;;;;5067534;28;20048;-65
2023/01/16 04:48:54;;;;;;;13.57;9.07;;;;;;;;;;5071573;28;20036;-65
2023/01/16 04:51:20;;;;;;;13.75;8.63;;;;;;;;;;5070143;28;20101;-64
2023/01/16 04:53:46;;;;;;;17.23;8.85;;;;;;;;;;5069596;28;20486;-64
2023/01/16 04:56:12;;;;;;;14.88;8.35;;;;;;;;;;5072882;28;20093;-65
2023/01/16 04:58:38;;;;;;;18.42;8.18;;;;;;;;;;5070928;28;20040;-65
2023/01/16 05:01:04;;;;;;;15.88;8.02;;;;;;;;;;5066127;28;20036;-65
2023/01/16 05:03:30;;;;;;;14.10;7.60;;;;;;;;;;5066319;28;20071;-65
2023/01/16 05:05:56;;;;;;;14.82;7.70;;;;;;;;;;5067353;28;20089;-64
2023/01/16 05:08:25;;;;;;;13.02;7.35;;;;;;;;;;5060186;28;20040;-64
2023/01/16 05:10:51;;;;;;;11.93;7.10;;;;;;;;;;5065322;28;20500;-65
2023/01/16 05:13:17;;;;;;;15.23;7.68;;;;;;;;;;5069727;28;20067;-64
2023/01/16 05:15:46;;;;;;;11.38;6.97;;;;;;;;;;5071066;28;20561;-64
2023/01/16 05:18:12;;;;;;;16.27;6.70;;;;;;;;;;5070504;28;20028;-64
2023/01/16 05:20:39;;;;;;;13.77;7.18;;;;;;;;;;5066908;28;20052;-64
2023/01/16 05:23:05;;;;;;;10.68;6.22;;;;;;;;;;5073361;28;20051;-64
2023/01/16 05:25:32;;;;;;;11.60;6.03;;;;;;;;;;5075342;28;20123;-64
2023/01/16 05:27:58;;;;;;;12.75;5.95;;;;;;;;;;5071845;28;20040;-65
2023/01/16 05:30:24;;;;;;;12.88;5.75;;;;;;;;;;5070640;28;20160;-64
2023/01/16 05:32:50;;;;;;;14.07;6.28;;;;;;;;;;5070636;28;20079;-64
2023/01/16 05:35:16;;;;;;;14.23;6.10;;;;;;;;;;5071600;28;20036;-64
2023/01/16 05:37:42;;;;;;;9.82;5.38;;;;;;;;;;5071288;28;20044;-64
2023/01/16 05:40:09;;;;;;;9.05;5.55;;;;;;;;;;5070091;28;20501;-64
2023/01/16 05:42:35;;;;;;;9.77;5.30;;;;;;;;;;5067496;28;20039;-64
2023/01/16 05:45:01;;;;;;;11.80;5.85;;;;;;;;;;5072518;28;20036;-64
2023/01/16 05:47:27;;;;;;;13.35;5.78;;;;;;;;;;5071996;28;20084;-64
2023/01/16 05:49:53;;;;;;;9.02;5.68;;;;;;;;;;5069286;28;20089;-64
2023/01/16 05:52:19;;;;;;;11.27;5.03;;;;;;;;;;5071977;28;20048;-64
2023/01/16 05:54:45;;;;;;;9.90;5.15;;;;;;;;;;5071831;28;20544;-64
2023/01/16 05:57:12;;;;;;;12.15;5.53;;;;;;;;;;5070761;28;20082;-64
2023/01/16 05:59:41;;;;;;;14.35;5.57;;;;;;;;;;5083256;28;20086;-64
2023/01/16 06:02:07;;;;;;;8.45;5.40;;;;;;;;;;5067734;28;20037;-64
2023/01/16 06:04:33;;;;;;;9.30;5.22;;;;;;;;;;5070071;28;20072;-64
2023/01/16 06:06:59;;;;;;;11.25;5.65;;;;;;;;;;5068564;28;20072;-64
2023/01/16 06:09:25;;;;;;;9.45;5.57;;;;;;;;;;5067841;28;20048;-65
2023/01/16 06:11:51;;;;;;;9.02;4.97;;;;;;;;;;5067513;28;20036;-64
2023/01/16 06:14:17;;;;;;;9.90;5.13;;;;;;;;;;5066713;28;20047;-65
2023/01/16 06:16:43;;;;;;;9.55;4.35;;;;;;;;;;5070207;28;20135;-64
2023/01/16 06:19:09;;;;;;;9.18;5.20;;;;;;;;;;5068828;28;20492;-64
2023/01/16 06:21:35;;;;;;;9.07;4.95;;;;;;;;;;5063114;28;20041;-64
2023/01/16 06:24:01;;;;;;;8.35;4.93;;;;;;;;;;5069212;28;20036;-64
2023/01/16 06:26:27;;;;;;;10.57;4.55;;;;;;;;;;5068432;28;20398;-64
2023/01/16 06:28:55;;;;;;;9.18;4.60;;;;;;;;;;5071867;28;20078;-64
2023/01/16 06:31:22;;;;;;;7.05;4.65;;;;;;;;;;5069883;28;20040;-64
2023/01/16 06:33:48;;;;;;;6.47;4.18;;;;;;;;;;5073261;28;20517;-64
2023/01/16 06:36:14;;;;;;;6.30;4.07;;;;;;;;;;5064712;28;20085;-64
2023/01/16 06:38:40;;;;;;;7.50;3.72;;;;;;;;;;5069014;28;20048;-64
2023/01/16 06:41:06;;;;;;;5.55;3.65;;;;;;;;;;5065802;28;20036;-64
2023/01/16 06:43:32;;;;;;;9.10;3.70;;;;;;;;;;5065740;28;20051;-64
2023/01/16 06:45:58;;;;;;;6.18;3.88;;;;;;;;;;5065423;28;20445;-64
2023/01/16 06:48:24;;;;;;;6.68;3.45;;;;;;;;;;5065970;28;20036;-64
2023/01/16 06:50:50;;;;;;;12.68;4.40;;;;;;;;;;5068141;28;20048;-64
2023/01/16 06:53:16;;;;;;;9.95;3.65;;;;;;;;;;5072561;28;20102;-64
2023/01/16 06:55:42;;;;;;;7.90;3.78;;;;;;;;;;5068175;28;20119;-64
2023/01/16 06:58:08;;;;;;;7.38;3.72;;;;;;;;;;5067065;28;20074;-64
2023/01/16 07:00:35;;;;;;;9.07;4.43;;;;;;;;;;5069457;28;20032;-64
2023/01/16 07:03:01;;;;;;;9.48;4.35;;;;;;;;;;5070471;28;20408;-64
2023/01/16 07:05:28;;;;;;;10.20;4.38;;;;;;;;;;5065856;28;20463;-64
2023/01/16 07:07:55;;;;;;;8.20;3.63;;;;;;;;;;5066638;28;20040;-64
2023/01/16 07:10:21;;;;;;;8.32;4.22;;;;;;;;;;5065219;28;20049;-64
2023/01/16 07:12:48;;;;;;;12.88;6.65;;;;;;;;;;5064784;28;20071;-64
2023/01/16 07:23:36;;;;;;;7.88;4.30;;;;;;;;;;5063622;28;20149;-64
2023/01/16 07:26:04;;;;;;;10.68;4.82;;;;;;;;;;5070174;28;20044;-64
2023/01/16 07:28:30;;;;;;;14.13;6.10;;;;;;;;;;5075196;28;20040;-64
2023/01/16 07:30:57;;;;;;;13.52;6.20;;;;;;;;;;5072179;28;20063;-64
2023/01/16 07:33:23;;;;;;;9.18;5.13;;;;;;;;;;5073859;28;20123;-64
2023/01/16 07:35:49;;;;;;;13.73;6.28;;;;;;;;;;5071113;28;20089;-64
2023/01/16 07:38:15;;;;;;;12.68;5.43;;;;;;;;;;5073588;28;20129;-65
2023/01/16 07:40:41;;;;;;;11.25;5.53;;;;;;;;;;5072228;28;20493;-64
2023/01/16 07:43:07;;;;;;;11.77;4.88;;;;;;;;;;5071215;28;20098;-64
2023/01/16 07:45:33;;;;;;;8.50;4.28;;;;;;;;;;5073948;28;20041;-64
2023/01/16 07:48:00;;;;;;;9.63;4.88;;;;;;;;;;5069235;28;20047;-64
2023/01/16 07:50:26;;;;;;;9.98;4.55;;;;;;;;;;5073047;28;20045;-64
2023/01/16 07:52:52;;;;;;;11.38;4.63;;;;;;;;;;5071827;28;20044;-64
2023/01/16 07:55:18;;;;;;;8.77;4.22;;;;;;;;;;5073985;28;20040;-64
2023/01/16 07:57:44;;;;;;;10.23;4.82;;;;;;;;;;5068676;28;20039;-64
2023/01/16 08:00:11;;;;;;;9.60;4.38;;;;;;;;;;5073623;28;20036;-64
2023/01/16 08:02:37;;;;;;;9.65;4.90;;;;;;;;;;5073009;28;20032;-64
2023/01/16 08:05:03;;;;;;;8.05;4.47;;;;;;;;;;5067348;28;20044;-64
2023/01/16 08:07:29;;;;;;;6.93;4.45;;;;;;;;;;5077462;28;20065;-64
2023/01/16 08:09:55;;;;;;;8.80;4.45;;;;;;;;;;5072091;28;20036;-64
2023/01/16 08:12:21;;;;;;;9.57;4.10;;;;;;;;;;5072210;28;20044;-63
2023/01/16 08:14:47;;;;;;;11.45;3.90;;;;;;;;;;5071733;28;20075;-64
2023/01/16 08:17:13;;;;;;;7.70;4.20;;;;;;;;;;5072623;28;20051;-64
2023/01/16 08:19:39;;;;;;;11.68;4.10;;;;;;;;;;5068295;28;20047;-64
2023/01/16 08:22:05;;;;;;;8.38;3.83;;;;;;;;;;5068069;28;20398;-63
2023/01/16 08:24:31;;;;;;;7.18;3.45;;;;;;;;;;5069855;28;20044;-64
2023/01/16 08:29:34;;;;;;;6.35;3.60;;;;;;;;;;5043752;28;20052;-67
2023/01/16 08:32:00;;;;;;;11.23;3.92;;;;;;;;;;5049714;28;20037;-67
2023/01/16 08:34:27;;;;;;;7.72;4.00;;;;;;;;;;5043424;28;20046;-67
2023/01/16 08:36:53;;;;;;;8.10;3.78;;;;;;;;;;5049603;28;20044;-67
2023/01/16 08:39:18;;;;;;;6.65;3.60;;;;;;;;;;5050890;28;20588;-67
2023/01/16 08:52:48;;;;;;;7.47;3.00;;;;;;;;;;5049030;28;20059;-67
2023/01/16 08:55:14;;;;;;;5.00;2.67;;;;;;;;;;5047666;28;20038;-68
2023/01/16 08:57:40;;;;;;;5.63;2.85;;;;;;;;;;5038106;28;20051;-68
2023/01/16 09:00:07;;;;;;;8.32;3.40;;;;;;;;;;5047957;28;20435;-67
2023/01/16 09:02:35;;;;;;;5.85;2.88;;;;;;;;;;5035462;28;20041;-68
2023/01/16 09:05:02;;;;;;;6.15;2.63;;;;;;;;;;5053624;28;20049;-68
2023/01/16 09:07:28;;;;;;;4.57;2.65;;;;;;;;;;5048390;28;20120;-69
2023/01/16 09:09:54;;;;;;;4.85;2.70;;;;;;;;;;5037395;28;20041;-68
2023/01/16 09:15:06;;;;;;;7.32;2.60;;;;;;;;;;5045130;28;20122;-68
2023/01/16 09:17:32;;;;;;;3.50;2.40;;;;;;;;;;5051877;28;20060;-68
2023/01/16 09:19:58;;;;;;;5.90;2.75;;;;;;;;;;5040997;28;20057;-68
2023/01/16 09:22:26;;;;;;;4.25;2.33;;;;;;;;;;5035389;28;20042;-68
2023/01/16 09:24:52;;;;;;;6.75;2.42;;;;;;;;;;5040133;28;20100;-68
2023/01/16 09:27:19;;;;;;;5.03;2.40;;;;;;;;;;5042534;28;20080;-68
2023/01/16 09:29:45;;;;;;;6.00;2.70;;;;;;;;;;5025854;28;20411;-68
2023/01/16 09:32:11;;;;;;;6.13;2.60;;;;;;;;;;5040437;28;20044;-68
2023/01/16 09:34:38;;;;;;;3.80;2.03;;;;;;;;;;5044648;28;20045;-67
2023/01/16 09:37:05;;;;;;;6.40;2.20;;;;;;;;;;5043802;28;20651;-68
2023/01/16 09:39:31;;;;;;;4.97;2.17;;;;;;;;;;5041703;28;20084;-68
2023/01/16 09:44:52;;;;;;;3.97;1.70;;;;;;;;;;5035566;28;20049;-67
2023/01/16 09:47:21;;;;;;;3.53;1.70;;;;;;;;;;5039788;28;20049;-68
2023/01/16 09:49:56;;;;;;;3.30;1.80;;;;;;;;;;5042476;28;20549;-68
2023/01/16 10:00:49;;;;;;;2.22;1.30;;;;;;;;;;5047805;28;20044;-67
2023/01/16 10:03:15;;;;;;;2.85;1.60;;;;;;;;;;5047279;28;20186;-67
2023/01/16 10:06:00;;;;;;;3.95;1.70;;;;;;;;;;5048846;28;20139;-67
2023/01/16 10:08:26;;;;;;;4.00;1.50;;;;;;;;;;5044534;28;20443;-67
2023/01/16 10:11:04;;;;;;;3.10;1.48;;;;;;;;;;5128603;27;20391;-68
2023/01/16 10:13:30;;;;;;;;;;;;;;;;;;5122617;28;20119;-68
2023/01/16 10:16:15;;;;;;;2.75;1.70;;;;;;;;;;5126887;27;20002;-68
2023/01/16 10:18:50;;;;;;;2.30;1.50;;;;;;;;;;5099212;28;20047;-67
2023/01/16 10:21:16;;;;;;;3.88;1.80;;;;;;;;;;5098745;28;20035;-67
2023/01/16 10:23:45;;;;;;;2.92;1.35;;;;;;;;;;5101470;28;20040;-67
2023/01/16 10:26:22;;;;;;;3.30;1.73;;;;;;;;;;5107663;28;20042;-67
2023/01/16 10:28:57;;;;;;;3.55;1.55;;;;;;;;;;5102537;28;20436;-67
2023/01/16 10:31:26;;;;;;;3.50;1.70;;;;;;;;;;5107592;28;20118;-68
2023/01/16 10:33:55;;;;;;;3.67;1.88;;;;;;;;;;5101257;28;20075;-67
2023/01/16 10:36:23;;;;;;;3.00;1.58;;;;;;;;;;5098139;28;20040;-68
2023/01/16 10:38:55;;;;;;;2.78;1.50;;;;;;;;;;5105220;28;20186;-68
2023/01/16 10:49:55;;;;;;;4.40;2.30;;;;;;;;;;5106660;28;20442;-68
2023/01/16 10:52:22;;;;;;;2.67;1.88;;;;;;;;;;5100180;28;20089;-67
2023/01/16 10:54:48;;;;;;;2.75;1.95;;;;;;;;;;5105565;28;20501;-68
2023/01/16 10:57:18;;;;;;;4.22;1.52;;;;;;;;;;5100699;28;20032;-68
2023/01/16 10:59:49;;;;;;;6.28;2.30;;;;;;;;;;5106578;28;20093;-68
2023/01/16 11:02:23;;;;;;;4.43;2.03;;;;;;;;;;5100864;28;20208;-68
2023/01/16 11:04:49;;;;;;;5.47;1.70;;;;;;;;;;5100246;28;20043;-67
2023/01/16 11:07:17;;;;;;;4.72;2.08;;;;;;;;;;5103830;28;20035;-68
2023/01/16 11:09:44;;;;;;;3.20;2.03;;;;;;;;;;5102492;28;20358;-68
2023/01/16 11:20:39;;;;;;;2.97;1.83;;;;;;;;;;5085771;28;20043;-67
2023/01/16 11:23:17;;;;;;;1.35;1.25;;;;;;;;;;5089785;28;20119;-67
2023/01/16 11:25:44;;;;;;;4.85;2.00;;;;;;;;;;5088095;28;20108;-67
2023/01/16 11:28:15;;;;;;;4.20;1.85;;;;;;;;;;5090336;28;20067;-68
2023/01/16 11:30:43;;;;;;;5.32;2.05;;;;;;;;;;5085218;28;20048;-67
2023/01/16 11:33:14;;;;;;;4.45;1.63;;;;;;;;;;5078934;28;20066;-68
2023/01/16 11:35:43;;;;;;;2.72;1.80;;;;;;;;;;5090199;28;20054;-68
2023/01/16 11:38:14;;;;;;;2.25;1.75;;;;;;;;;;5082523;28;20036;-68
2023/01/16 11:40:45;;;;;;;6.55;1.85;;;;;;;;;;5084369;28;20043;-68
2023/01/16 11:46:12;;;;;;;3.05;1.73;;;;;;;;;;5081849;28;20055;-68
2023/01/16 11:48:39;;;;;;;4.57;1.60;;;;;;;;;;5087864;28;20036;-67
2023/01/16 11:51:06;;;;;;;4.28;1.88;;;;;;;;;;5092943;28;20040;-68
2023/01/16 11:53:34;;;;;;;3.55;1.70;;;;;;;;;;5090003;28;20040;-68
2023/01/16 11:56:18;;;;;;;3.08;1.75;;;;;;;;;;5088236;28;20444;-68
2023/01/16 11:58:51;;;;;;;3.90;2.20;;;;;;;;;;5101203;28;20054;-68
2023/01/16 12:04:29;;;;;;;5.03;1.80;;;;;;;;;;5081927;28;20067;-67
2023/01/16 12:07:11;;;;;;;5.63;1.90;;;;;;;;;;5086806;28;20039;-67
2023/01/16 12:09:56;;;;;;;3.63;1.70;;;;;;;;;;5091880;28;20482;-67
2023/01/16 12:15:16;;;;;;;4.30;2.08;;;;;;;;;;5085415;28;20033;-67
2023/01/16 12:17:51;;;;;;;4.93;2.17;;;;;;;;;;5085460;28;20051;-67
2023/01/16 12:20:25;;;;;;;4.20;1.85;;;;;;;;;;5089556;28;20482;-67
2023/01/16 12:22:54;;;;;;;6.00;2.28;;;;;;;;;;5090396;28;20482;-67
2023/01/16 12:25:23;;;;;;;3.10;1.83;;;;;;;;;;5086888;28;20109;-67
2023/01/16 12:27:58;;;;;;;2.33;1.75;;;;;;;;;;5085174;28;20088;-68
2023/01/16 12:30:42;;;;;;;5.70;2.30;;;;;;;;;;5080369;28;20049;-67
2023/01/16 12:33:13;;;;;;;3.67;2.00;;;;;;;;;;5069342;28;20110;-68
2023/01/16 12:35:48;;;;;;;5.20;2.28;;;;;;;;;;5078923;28;20416;-67
2023/01/16 12:38:16;;;;;;;3.45;1.90;;;;;;;;;;5077002;28;20443;-67
2023/01/16 12:40:43;;;;;;;3.50;2.20;;;;;;;;;;5078442;28;20500;-67
2023/01/16 12:43:24;;;;;;;2.35;1.52;;;;;;;;;;5078190;28;20040;-67
2023/01/16 12:45:56;;;;;;;2.70;2.17;;;;;;;;;;5078569;28;20508;-67
2023/01/16 12:48:40;;;;;;;2.72;2.05;;;;;;;;;;5076155;28;20067;-67
2023/01/16 12:51:09;;;;;;;3.05;1.95;;;;;;;;;;5091773;28;20063;-66
2023/01/16 12:53:35;;;;;;;4.40;2.05;;;;;;;;;;5077789;28;20092;-66
2023/01/16 12:56:01;;;;;;;2.85;1.80;;;;;;;;;;5081569;28;20533;-66
2023/01/16 12:58:31;;;;;;;2.55;2.03;;;;;;;;;;5078568;28;20134;-67
2023/01/16 13:01:16;;;;;;;2.17;1.55;;;;;;;;;;5078037;28;20040;-67
2023/01/16 13:03:48;;;;;;;3.40;1.73;;;;;;;;;;5075346;28;20047;-67
2023/01/16 13:06:21;;;;;;;2.00;1.75;;;;;;;;;;5080138;28;20040;-67
2023/01/16 13:08:58;;;;;;;2.78;1.60;;;;;;;;;;5083548;28;20040;-66
2023/01/16 13:14:12;;;;;;;4.13;1.60;;;;;;;;;;5072129;28;20094;-67
2023/01/16 13:16:44;;;;;;;3.60;1.83;;;;;;;;;;5084447;28;20028;-67
2023/01/16 13:19:24;;;;;;;5.85;1.98;;;;;;;;;;5088123;28;20047;-67
2023/01/16 13:21:50;;;;;;;3.25;2.05;;;;;;;;;;5088897;28;20131;-67
2023/01/16 13:24:20;;;;;;;3.38;1.83;;;;;;;;;;5080008;28;20114;-67
2023/01/16 13:26:49;;;;;;;1.90;1.67;;;;;;;;;;5083651;28;20036;-67
2023/01/16 13:29:26;;;;;;;2.55;1.55;;;;;;;;;;5086663;28;20039;-67
2023/01/16 13:31:57;;;;;;;2.92;1.73;;;;;;;;;;5081008;28;20085;-67
2023/01/16 13:34:23;;;;;;;;;;;;;;;;;;5088725;28;20422;-67
2023/01/16 13:37:08;;;;;;;1.58;1.45;;;;;;;;;;5088384;28;19996;-67
2023/01/16 13:39:52;;;;;;;2.42;1.40;;;;;;;;;;5087702;28;20116;-67
2023/01/16 13:42:19;;;;;;;3.15;1.30;;;;;;;;;;5087224;28;20063;-67
2023/01/16 13:47:38;;;;;;;1.05;1.00;;;;;;;;;;5078509;28;20048;-67
2023/01/16 13:50:04;;;;;;;3.13;1.10;;;;;;;;;;5075673;28;20118;-67
2023/01/16 13:52:30;;;;;;;2.95;1.30;;;;;;;;;;5080048;28;20131;-67
2023/01/16 13:54:59;;;;;;;3.50;1.40;;;;;;;;;;5087162;28;20031;-67
2023/01/16 13:57:27;;;;;;;2.63;1.08;;;;;;;;;;5084131;28;20110;-67
2023/01/16 13:59:56;;;;;;;2.67;1.23;;;;;;;;;;5084007;28;20047;-67
2023/01/16 14:02:34;;;;;;;3.40;1.30;;;;;;;;;;5099643;28;20062;-67
2023/01/16 14:05:23;;;;;;;1.92;1.20;;;;;;;;;;5085304;28;20040;-67
2023/01/16 14:10:44;;;;;;;2.60;1.40;;;;;;;;;;5076758;28;20058;-67
2023/01/16 14:13:14;;;;;;;2.13;1.17;;;;;;;;;;5075220;28;20385;-67
2023/01/16 14:18:43;;;;;;;6.50;2.03;;;;;;;;;;5079962;28;20048;-66
2023/01/16 14:21:25;;;;;;;2.17;1.30;;;;;;;;;;5085540;28;20078;-67
2023/01/16 14:24:02;;;;;;;4.07;1.40;;;;;;;;;;5090117;28;20043;-67
2023/01/16 14:26:31;;;;;;;8.25;4.35;;;;;;;;;;5088019;28;20066;-67
2023/01/16 14:29:00;;;;;;;3.92;1.42;;;;;;;;;;5082256;22;20054;-62
2023/01/16 14:31:40;;;;;;;3.17;1.30;;;;;;;;;;5025569;28;20542;-60
2023/01/16 14:34:11;;;;;;;1.48;1.38;;;;;;;;;;5026126;28;20044;-61
2023/01/16 14:36:37;;;;;;;1.88;1.42;;;;;;;;;;5034439;28;20083;-61
2023/01/16 14:39:03;;;;;;;2.97;1.50;;;;;;;;;;5023600;28;20121;-61
2023/01/16 14:55:45;;;;;;;2.22;1.60;;;;;;;;;;5008246;28;20049;-62
2023/01/16 14:58:23;;;;;;;1.85;1.42;;;;;;;;;;5007255;28;20531;-61
2023/01/16 15:00:51;;;;;;;3.78;1.80;;;;;;;;;;5004374;28;20136;-63
2023/01/16 15:03:22;;;;;;;3.90;1.48;;;;;;;;;;5014445;28;20108;-61
2023/01/16 15:05:51;;;;;;;2.42;1.40;;;;;;;;;;5009264;28;20038;-61
2023/01/16 15:08:27;;;;;;;2.60;1.50;;;;;;;;;;5009539;28;20084;-62
2023/01/16 15:10:54;;;;;;;2.17;1.70;;;;;;;;;;5013273;28;20122;-62
2023/01/16 15:13:24;;;;;;;2.00;1.30;;;;;;;;;;5019094;28;20041;-61
2023/01/16 15:15:52;;;;;;;4.05;1.60;;;;;;;;;;5018579;28;20045;-61
2023/01/16 15:22:11;;;;;;;2.28;1.63;;;;;;;;;;5010282;28;20112;-61
2023/01/16 15:24:08;;;;;;;2.25;1.50;;;;;;;;;;5005405;28;20045;-62
2023/01/16 15:26:37;;;;;;;2.45;1.50;;;;;;;;;;5013593;28;20050;-62
2023/01/16 15:29:11;;;;;;;1.95;1.50;;;;;;;;;;5013942;28;20045;-62
2023/01/16 15:31:42;;;;;;;3.33;1.80;;;;;;;;;;5011936;28;20499;-61
2023/01/16 15:34:14;;;;;;;2.70;1.58;;;;;;;;;;5010566;28;20044;-61
2023/01/16 15:36:41;;;;;;;3.63;1.65;;;;;;;;;;5014135;28;20038;-61
2023/01/16 15:39:25;;;;;;;2.42;1.70;;;;;;;;;;5011332;28;20408;-61
2023/01/16 15:47:33;;;;;;;1.67;1.58;;;;;;;;;;5007546;28;20042;-61
2023/01/16 15:50:08;;;;;;;2.85;1.75;;;;;;;;;;5008070;28;20518;-62
2023/01/16 15:52:41;;;;;;;2.33;1.50;;;;;;;;;;5014454;28;20042;-61
2023/01/16 15:55:20;;;;;;;2.45;1.27;;;;;;;;;;5004409;28;20042;-62
2023/01/16 15:57:47;;;;;;;1.00;0.90;;;;;;;;;;5011513;28;20113;-62
2023/01/16 16:00:30;;;;;;;1.77;1.42;;;;;;;;;;5011834;28;20042;-62
2023/01/16 16:03:16;;;;;;;2.38;1.45;;;;;;;;;;5005079;28;20100;-61
2023/01/16 16:05:44;;;;;;;1.88;1.35;;;;;;;;;;5011517;28;20049;-61
2023/01/16 16:08:15;;;;;;;2.83;1.58;;;;;;;;;;5010236;28;20046;-62
2023/01/16 16:13:27;;;;;;;2.72;1.83;;;;;;;;;;5012069;28;20092;-62
2023/01/16 16:18:52;;;;;;;4.45;2.10;;;;;;;;;;5011827;28;20050;-61
2023/01/16 16:21:19;;;;;;;2.28;1.90;;;;;;;;;;5012434;28;20113;-61
2023/01/16 16:23:45;;;;;;;2.80;2.05;;;;;;;;;;5013285;28;20500;-62
2023/01/16 16:26:14;;;;;;;2.72;2.05;;;;;;;;;;5021608;28;20037;-61
2023/01/16 16:28:40;;;;;;;2.60;1.92;;;;;;;;;;5009505;28;20034;-61
2023/01/16 16:31:15;;;;;;;3.58;1.98;;;;;;;;;;5011727;28;20519;-62
2023/01/16 16:33:43;;;;;;;2.90;1.90;;;;;;;;;;5010577;28;20053;-61
2023/01/16 16:36:14;;;;;;;3.42;2.33;;;;;;;;;;5015749;28;20065;-61
2023/01/16 16:38:40;;;;;;;;;;;;;;;;;;5030153;28;20518;-61
2023/01/16 16:41:10;;;;;;;2.90;2.45;;;;;;;;;;5016103;28;19928;-62
2023/01/16 16:43:46;;;;;;;3.38;2.40;;;;;;;;;;5008921;28;20072;-61